• Join FlightAware (Why Join?)
  • Login
  • US Flag 
06:55AM EST


 

Airport Tracker/Info


-or-


 

Live Flight TrackerFlight Track Log ✈ N15RH ✈ 26-Dec-2013 ✈ KFTY - KMTH

Flight Track Log - Related Links

Times and Time Zones

All times are in EST time to prevent confusion due to time zone crossing. See the N15RH flight status page for this flight to view local times or setup timezone preferences in your user account.

Time Position Orientation Groundspeed Altitude Reporting Facility
EST Latitude Longitude Course Direction KTS MPH feet Rate Location/Type
11:07AM 33.8167 -84.5167 320° Northwest 96 110 2,100  Level Atlanta TRACON
11:08AM 33.8333 -84.5333 320° Northwest 92 106 3,000 780 Climbing Atlanta TRACON
11:09AM 33.8500 -84.5000 59° Northeast 119 137 3,700 720 Climbing Atlanta TRACON
11:10AM 33.8167 -84.4833 157° South 128 147 4,400 660 Climbing Atlanta TRACON
11:11AM 33.8000 -84.4667 140° Southeast 121 139 5,000 300 Climbing Atlanta TRACON
11:12AM 33.7667 -84.4667 180° South 146 168 5,000  Level Atlanta TRACON
11:13AM 33.7167 -84.4667 180° South 153 176 5,000  Level Atlanta TRACON
11:14AM 33.6667 -84.4833 196° South 155 178 5,000  Level Atlanta TRACON
11:15AM 33.6333 -84.4833 180° South 164 189 5,000  Level Atlanta TRACON
11:16AM 33.5833 -84.4833 180° South 156 180 5,000  Level Atlanta TRACON
11:17AM 33.5333 -84.4833 180° South 157 181 5,000  Level Atlanta TRACON
11:18AM 33.4833 -84.4833 180° South 158 182 5,000  Level Atlanta TRACON
11:19AM 33.4500 -84.4833 180° South 160 184 5,000  Level Atlanta TRACON
11:20AM 33.4167 -84.4667 157° South 162 186 5,000  Level Atlanta TRACON
11:21AM 33.3667 -84.4500 164° South 162 186 5,000  Level Atlanta TRACON
11:22AM 33.3167 -84.4167 151° Southeast 161 185 5,000  Level Atlanta TRACON
11:23AM 33.2833 -84.4000 157° South 161 185 5,000  Level Atlanta TRACON
11:24AM 33.2500 -84.3833 157° South 158 182 5,000  Level Atlanta TRACON
11:25AM 33.2000 -84.3667 164° South 159 183 5,000  Level Atlanta TRACON
11:26AM 33.1667 -84.3500 157° South 159 183 5,000  Level Atlanta TRACON
11:27AM 33.1167 -84.3333 164° South 155 178 5,000  Level Atlanta TRACON
11:28AM 33.0833 -84.3000 140° Southeast 155 178 5,000  Level Atlanta TRACON
11:29AM 33.0333 -84.2833 164° South 154 177 5,000  Level Atlanta TRACON
11:31AM 32.9500 -84.2500 156° South 158 182 5,000  Level Atlanta TRACON
11:32AM 32.9167 -84.2333 157° South 157 181 5,000  Level Atlanta TRACON
11:33AM 32.8833 -84.2167 157° South 157 181 5,000  Level Atlanta TRACON
11:34AM 32.8333 -84.1833 151° Southeast 158 182 5,000  Level Atlanta TRACON
11:35AM 32.8000 -84.1667 157° South 153 176 5,000  Level Atlanta TRACON
11:36AM 32.7667 -84.1500 157° South 155 178 5,000  Level Atlanta TRACON
11:37AM 32.7167 -84.1333 164° South 154 177 5,000  Level Atlanta TRACON
11:38AM 32.6833 -84.1167 157° South 151 174 5,000  Level Atlanta TRACON
11:39AM 32.6500 -84.1000 157° South 150 173 5,000  Level Atlanta TRACON
11:40AM 32.6000 -84.0833 164° South 148 170 5,000  Level Atlanta TRACON
11:41AM 32.5667 -84.0667 157° South 148 170 5,000  Level Atlanta TRACON
11:42AM 32.5333 -84.0500 157° South 151 174 5,000  Level Atlanta TRACON
11:43AM 32.5000 -84.0333 157° South 152 175 5,000  Level Atlanta TRACON
11:44AM 32.4500 -84.0000 151° Southeast 151 174 5,000  Level Atlanta TRACON
11:45AM 32.4167 -83.9833 157° South 152 175 5,000  Level Atlanta TRACON
11:46AM 32.3833 -83.9667 157° South 148 170 5,000  Level Atlanta TRACON
11:47AM 32.3333 -83.9500 164° South 150 173 5,000  Level Atlanta TRACON
11:48AM 32.3000 -83.9333 157° South 149 171 5,000  Level Atlanta TRACON
11:49AM 32.2397 -83.9119 163° South 154 177 5,000  Level Jacksonville Center
11:50AM 32.1981 -83.8942 160° South 154 177 5,000  Level Jacksonville Center
11:51AM 32.1586 -83.8742 157° South 154 177 5,000  Level Jacksonville Center
11:52AM 32.1189 -83.8567 160° South 154 177 5,000  Level Jacksonville Center
11:53AM 32.0794 -83.8367 157° South 154 177 5,000  Level Jacksonville Center
11:54AM 32.0419 -83.8192 158° South 154 177 5,000  Level Jacksonville Center
11:55AM 32.0025 -83.8014 159° South 149 171 5,000  Level Jacksonville Center
11:56AM 31.9631 -83.7839 159° South 149 171 5,000  Level Jacksonville Center
11:57AM 31.9233 -83.7639 157° South 149 171 5,000  Level Jacksonville Center
11:58AM 31.8839 -83.7464 159° South 149 171 5,000 -60 Level Jacksonville Center
11:59AM 31.8444 -83.7267 157° South 149 171 4,900 -120 Descending Jacksonville Center
12:00PM 31.8214 -83.7189 164° South 151 174 4,900  Level Jacksonville Center
12:00PM 31.8047 -83.7092 154° Southeast 149 171 4,900  Level Jacksonville Center
12:01PM 31.7861 -83.7017 161° South 150 173 4,900 60 Level Jacksonville Center
12:01PM 31.7694 -83.6917 153° Southeast 149 171 5,000 60 Climbing Jacksonville Center
12:02PM 31.7506 -83.6842 161° South 146 168 5,000  Level Jacksonville Center
12:02PM 31.7297 -83.6742 158° South 149 171 5,000  Level Jacksonville Center
12:03PM 31.7089 -83.6667 163° South 148 170 5,000  Level Jacksonville Center
12:03PM 31.6944 -83.6569 150° Southeast 149 171 5,000  Level Jacksonville Center
12:04PM 31.6694 -83.6469 161° South 154 177 5,000  Level Jacksonville Center
12:04PM 31.6550 -83.6394 156° South 149 171 5,000  Level Jacksonville Center
12:05PM 31.6300 -83.6294 161° South 152 175 5,000  Level Jacksonville Center
12:05PM 31.6153 -83.6197 151° Southeast 149 171 5,000  Level Jacksonville Center
12:06PM 31.5903 -83.6119 165° South 151 174 5,000  Level Jacksonville Center
12:06PM 31.5778 -83.6047 154° Southeast 149 171 5,000  Level Jacksonville Center
12:07PM 31.5508 -83.5922 158° South 151 174 5,000  Level Jacksonville Center
12:07PM 31.5383 -83.5847 153° Southeast 149 171 5,000  Level Jacksonville Center
12:08PM 31.5111 -83.5750 163° South 149 171 5,000  Level Jacksonville Center
12:08PM 31.5008 -83.5700 157° South 149 171 5,000  Level Jacksonville Center
12:09PM 31.4736 -83.5600 163° South 147 169 5,000  Level Jacksonville Center
12:09PM 31.4611 -83.5503 146° Southeast 149 171 5,000  Level Jacksonville Center
12:10PM 31.4342 -83.5403 162° South 147 169 5,000  Level Jacksonville Center
12:11PM 31.3986 -83.5231 158° South 146 168 5,000  Level Jacksonville Center
12:12PM 31.3569 -83.5056 160° South 146 168 5,000  Level Jacksonville Center
12:13PM 31.3194 -83.4883 159° South 145 167 5,000  Level Jacksonville Center
12:14PM 31.2819 -83.4686 156° South 145 167 5,000  Level Jacksonville Center
12:15PM 31.2444 -83.4514 159° South 146 168 5,000  Level Jacksonville Center
12:16PM 31.2050 -83.4342 160° South 147 169 5,000  Level Jacksonville Center
12:17PM 31.1633 -83.4147 158° South 147 169 5,000  Level Jacksonville Center
12:18PM 31.1236 -83.3975 160° South 149 171 5,000  Level Jacksonville Center
12:19PM 31.0861 -83.3803 159° South 148 170 5,000  Level Jacksonville Center
12:20PM 31.0467 -83.3606 157° South 149 171 5,000  Level Jacksonville Center
12:21PM 31.0089 -83.3458 162° South 151 174 5,000  Level Jacksonville Center
12:22PM 30.9694 -83.3286 159° South 152 175 5,000  Level Jacksonville Center
12:23PM 30.9381 -83.3092 152° Southeast 151 174 5,000  Level Jacksonville Center
12:23PM 30.9319 -83.3117 199° South 152 175 5,000  Level Jacksonville Center
12:24PM 30.9006 -83.2969 158° South 151 174 5,000  Level Jacksonville Center
12:24PM 30.8922 -83.2919 153° Southeast 152 175 5,000  Level Jacksonville Center
12:25PM 30.8611 -83.2750 155° Southeast 151 174 5,000  Level Jacksonville Center
12:25PM 30.8486 -83.2750 180° South 153 176 5,000 -120 Level Jacksonville Center
12:26PM 30.8214 -83.2578 151° Southeast 162 186 4,900 -60 Descending Jacksonville Center
12:27PM 30.7817 -83.2358 155° Southeast 162 186 4,900  Level Jacksonville Center
12:28PM 30.7422 -83.2214 163° South 162 186 4,900  Level Jacksonville Center
12:29PM 30.7025 -83.2019 157° South 162 186 4,900  Level Jacksonville Center
12:30PM 30.6628 -83.1847 160° South 157 181 4,900  Level Jacksonville Center
12:31PM 30.6233 -83.1678 160° South 157 181 4,900  Level Jacksonville Center
12:32PM 30.5858 -83.1483 156° South 151 174 4,900 300 Level Jacksonville Center
12:33PM 30.5503 -83.1339 161° South 145 167 5,600 600 Climbing Jacksonville Center
12:34PM 30.5211 -83.1217 160° South 134 154 6,100 480 Climbing Jacksonville Center
12:35PM 30.4919 -83.1047 153° Southeast 128 147 6,600 360 Climbing Jacksonville Center
12:36PM 30.4606 -83.0950 165° South 123 142 6,900 120 Climbing Jacksonville Center
12:37PM 30.4250 -83.0781 158° South 129 148 6,900  Level Jacksonville Center
12:38PM 30.3897 -83.0611 157° South 135 155 6,900  Level Jacksonville Center
12:39PM 30.3500 -83.0442 160° South 141 162 6,900  Level Jacksonville Center
12:40PM 30.3103 -83.0272 160° South 146 168 6,900  Level Jacksonville Center
12:41PM 30.2728 -83.0081 156° South 146 168 6,900  Level Jacksonville Center
12:42PM 30.2331 -82.9911 160° South 146 168 6,900  Level Jacksonville Center
12:43PM 30.1956 -82.9742 159° South 146 168 6,900  Level Jacksonville Center
12:44PM 30.1539 -82.9597 163° South 146 168 6,900  Level Jacksonville Center
12:45PM 30.1161 -82.9406 156° South 146 168 6,900  Level Jacksonville Center
12:46PM 30.0786 -82.9239 159° South 146 168 6,900  Level Jacksonville Center
12:47PM 30.0369 -82.9069 161° South 146 168 6,900  Level Jacksonville Center
12:48PM 29.9992 -82.8878 156° South 146 168 6,900 60 Level Jacksonville Center
12:48PM 29.9825 -82.8853 173° South 151 174 7,000  Climbing Jacksonville Center
12:49PM 29.9597 -82.8711 152° Southeast 146 168 6,900  Descending Jacksonville Center
12:49PM 29.9283 -82.8614 165° South 151 174 7,000  Climbing Jacksonville Center
12:50PM 29.9178 -82.8519 142° Southeast 151 174 6,900  Descending Jacksonville Center
12:50PM 29.8886 -82.8447 168° South 151 174 7,000  Climbing Jacksonville Center
12:51PM 29.8781 -82.8350 141° Southeast 151 174 6,900  Descending Jacksonville Center
12:51PM 29.8531 -82.8256 162° South 150 173 7,000  Climbing Jacksonville Center
12:52PM 29.8386 -82.8158 150° Southeast 151 174 6,900  Descending Jacksonville Center
12:52PM 29.8156 -82.8089 165° South 147 169 7,000 60 Climbing Jacksonville Center
12:53PM 29.8008 -82.8017 157° South 151 174 7,000  Level Jacksonville Center
12:53PM 29.7800 -82.7919 158° South 144 166 7,000  Level Jacksonville Center
12:54PM 29.7611 -82.7850 162° South 151 174 7,000  Level Jacksonville Center
12:55PM 29.7300 -82.7731 162° South 149 171 7,000  Level Jacksonville Center
12:55PM 29.7236 -82.7683 147° Southeast 151 174 7,000  Level Jacksonville Center
12:56PM 29.6964 -82.7586 163° South 151 174 7,000  Level Jacksonville Center
12:56PM 29.6839 -82.7492 147° Southeast 151 174 7,000  Level Jacksonville Center
12:56PM 29.6608 -82.7397 160° South 151 174 7,000  Level Jacksonville Center
12:57PM 29.6442 -82.7325 159° South 151 174 7,000  Level Jacksonville Center
12:58PM 29.6172 -82.7206 159° South 150 173 7,000  Level Jacksonville Center
12:58PM 29.6044 -82.7158 162° South 151 174 7,000  Level Jacksonville Center
12:59PM 29.5711 -82.7039 163° South 150 173 7,000  Level Jacksonville Center
01:00PM 29.5378 -82.6872 156° South 147 169 7,000  Level Jacksonville Center
01:01PM 29.5000 -82.6731 162° South 148 170 7,000  Level Jacksonville Center
01:02PM 29.4625 -82.6542 156° South 147 169 7,000  Level Jacksonville Center
01:03PM 29.4228 -82.6375 160° South 149 171 7,000  Level Jacksonville Center
01:04PM 29.3853 -82.6208 159° South 147 169 7,000  Level Jacksonville Center
01:05PM 29.3456 -82.6019 157° South 148 170 7,000  Level Jacksonville Center
01:06PM 29.2953 -82.5831 162° South 149 171 7,000  Level Jacksonville Center
01:07PM 29.2661 -82.5664 154° Southeast 148 170 7,000  Level Jacksonville Center
01:08PM 29.2222 -82.5500 162° South 147 169 7,000  Level Jacksonville Center
01:09PM 29.1931 -82.5381 160° South 148 170 7,000  Level Jacksonville Center
01:10PM 29.1469 -82.5169 158° South 150 173 7,000  Level Jacksonville Center
01:11PM 29.1072 -82.5006 160° South 149 171 7,000  Level Jacksonville Center
01:12PM 29.0717 -82.4817 155° Southeast 150 173 7,000  Level Jacksonville Center
01:13PM 29.0319 -82.4650 160° South 152 175 7,000  Level Jacksonville Center
01:14PM 28.9944 -82.4511 162° South 151 174 7,000  Level Jacksonville Center
01:15PM 28.9483 -82.4322 160° South 152 175 7,000  Level Jacksonville Center
01:17PM 28.8667 -82.4000 161° South 153 176 7,000  Level Tampa TRACON
01:18PM 28.8333 -82.3833 156° South 154 177 7,000  Level Tampa TRACON
01:19PM 28.7833 -82.3500 150° Southeast 157 181 7,000  Level Tampa TRACON
01:20PM 28.7500 -82.3333 156° South 157 181 7,000  Level Tampa TRACON
01:21PM 28.7000 -82.3167 164° South 154 177 7,000  Level Tampa TRACON
01:22PM 28.6667 -82.3000 156° South 157 181 7,000  Level Tampa TRACON
01:23PM 28.6167 -82.2833 164° South 158 182 7,000  Level Tampa TRACON
01:24PM 28.5833 -82.2667 156° South 157 181 7,000  Level Tampa TRACON
01:25PM 28.5333 -82.2500 164° South 157 181 7,000  Level Tampa TRACON
01:26PM 28.5000 -82.2333 156° South 155 178 7,000  Level Tampa TRACON
01:27PM 28.4667 -82.2167 156° South 156 180 7,000  Level Tampa TRACON
01:28PM 28.4167 -82.2000 164° South 156 180 7,000  Level Tampa TRACON
01:29PM 28.3833 -82.1833 156° South 157 181 7,000  Level Tampa TRACON
01:30PM 28.3333 -82.1667 164° South 155 178 7,000 -60 Level Tampa TRACON
01:36PM 28.0941 -82.0599 164° South 152 175 6,800 -60 Descending FlightAware ADS-B (KMCO)
01:36PM 28.0798 -82.0538 159° South 152 175 6,800  Level FlightAware ADS-B (KMCO)
01:37PM 28.0659 -82.0479 159° South 152 175 6,800  Level FlightAware ADS-B (KMCO)
01:37PM 28.0537 -82.0427 159° South 151 174 6,800  Level FlightAware ADS-B (KMCO)
01:37PM 28.0399 -82.0368 159° South 151 174 6,800  Level FlightAware ADS-B (KMCO)
01:38PM 28.0091 -82.0237 159° South 151 174 6,800  Level FlightAware ADS-B (KMCO)
01:42PM 27.8527 -81.9733 164° South 150 173 6,800  Level FlightAware ADS-B (KMCO)
01:42PM 27.8341 -81.9676 165° South 151 174 6,800  Level FlightAware ADS-B (KMCO)
01:44PM 27.7678 -81.9475 165° South 150 173 6,800  Level FlightAware ADS-B (KMCO)
01:44PM 27.7537 -81.9432 165° South 149 171 6,800  Level FlightAware ADS-B (KMCO)
01:45PM 27.7299 -81.9361 165° South 149 171 6,800  Level FlightAware ADS-B (KMCO)
01:45PM 27.7112 -81.9304 165° South 148 170 6,800  Level FlightAware ADS-B (KMCO)
01:46PM 27.7095 -81.9299 165° South 148 170 6,800  Level FlightAware ADS-B (KMCO)
01:47PM 27.6401 -81.9089 165° South 148 170 6,800  Level FlightAware ADS-B (KMCO)
01:48PM 27.6138 -81.9009 165° South 149 171 6,800  Level FlightAware ADS-B (KMCO)
01:48PM 27.6015 -81.8973 165° South 150 173 6,800  Level FlightAware ADS-B (KMCO)
01:49PM 27.5914 -81.8949 168° South 145 167 6,800  Level FlightAware ADS-B (KMCO)
01:49PM 27.5720 -81.8979 188° South 145 167 6,800  Level FlightAware ADS-B (KMCO)
01:49PM 27.5589 -81.9001 188° South 146 168 6,800  Level FlightAware ADS-B (KMCO)
01:50PM 27.5495 -81.8995 177° South 148 170 6,800  Level FlightAware ADS-B (KMCO)
01:50PM 27.5237 -81.8928 167° South 150 173 6,800  Level FlightAware ADS-B (KMCO)
01:52PM 27.4643 -81.8741 164° South 150 173 6,800  Level FlightAware ADS-B (KMCO)
01:52PM 27.4575 -81.8720 165° South 151 174 6,800  Level FlightAware ADS-B (KMCO)
01:53PM 27.4056 -81.8560 165° South 151 174 6,800  Level FlightAware ADS-B (KMCO)
01:54PM 27.3788 -81.8477 165° South 151 174 6,800  Level FlightAware ADS-B (KMCO)
01:54PM 27.3617 -81.8425 165° South 150 173 6,800  Level FlightAware ADS-B (KMCO)
01:54PM 27.3507 -81.8391 165° South 150 173 6,800  Level FlightAware ADS-B (KMCO)
01:55PM 27.3277 -81.8320 165° South 149 171 6,800  Level FlightAware ADS-B (KMCO)
01:56PM 27.2979 -81.8229 165° South 148 170 6,800  Level FlightAware ADS-B (KMCO)
01:57PM 27.2681 -81.8137 165° South 148 170 6,800  Level FlightAware ADS-B (KMCO)
01:57PM 27.2544 -81.8095 165° South 147 169 6,800  Level FlightAware ADS-B (KMCO)
01:58PM 27.2276 -81.8013 165° South 147 169 6,800  Level FlightAware ADS-B (KMCO)
01:58PM 27.2224 -81.7997 165° South 147 169 6,800  Level FlightAware ADS-B (KMCO)
02:01PM 27.0890 -81.7589 165° South 147 169 6,900  Climbing FlightAware ADS-B (KMCO)
02:02PM 27.0519 -81.7475 165° South 147 169 6,900  Level FlightAware ADS-B (KMCO)
02:02PM 27.0334 -81.7419 165° South 147 169 6,900 60 Level FlightAware ADS-B (KMCO)
02:04PM 26.9997 -81.7192 165° South 139 160 7,000  Climbing Miami Center
02:05PM 26.9822 -81.6767 115° Southeast 147 169 7,000  Level Miami Center
02:06PM 26.9628 -81.6339 117° Southeast 153 176 7,000  Level Miami Center
02:07PM 26.9236 -81.6183 160° South 148 170 7,000  Level Miami Center
02:08PM 26.8803 -81.6072 167° South 155 178 7,000  Level Miami Center
02:16PM 26.5364 -81.5192 165° South 151 174 7,100  Climbing Miami Center
02:17PM 26.5087 -81.5688 167° South  Level FlightAware Approximate
02:17PM 26.5014 -81.5061 162° South 151 174 7,100  Level Miami Center
02:18PM 26.4693 -81.5573 165° South  Level FlightAware Approximate
02:18PM 26.4600 -81.4953 167° South 151 174 7,100  Level Miami Center
02:19PM 26.4299 -81.5453 165° South  Level FlightAware Approximate
02:19PM 26.4186 -81.4867 169° South 151 174 7,100  Level Miami Center
02:20PM 26.3906 -81.5334 165° South  Level FlightAware Approximate
02:20PM 26.3731 -81.4733 165° South 151 174 7,100  Level Miami Center
02:21PM 26.3512 -81.5214 165° South  Level FlightAware Approximate
02:21PM 26.3314 -81.4647 170° South 156 180 7,100  Level Miami Center
02:22PM 26.2942 -81.4539 165° South 156 180 7,100 -60 Level Miami Center
02:23PM 26.2508 -81.4406 165° South 156 180 7,000 -60 Descending Miami Center
02:24PM 26.2114 -81.4322 169° South 156 180 7,000  Level Miami Center
02:25PM 26.1636 -81.4211 168° South 161 185 7,000  Level Miami Center
02:26PM 26.1244 -81.4103 166° South 161 185 7,000  Level Miami Center
02:27PM 26.0831 -81.3972 164° South 161 185 7,000  Level Miami Center
02:28PM 26.0417 -81.3889 170° South 161 185 7,000  Level Miami Center
02:29PM 26.0022 -81.3781 166° South 161 185 7,000  Level Miami Center
02:30PM 25.9608 -81.3672 167° South 156 180 7,000  Level Miami Center
02:31PM 25.9194 -81.3564 167° South 156 180 7,000  Level Miami Center
02:32PM 25.8758 -81.3456 167° South 161 185 7,000  Level Miami Center
02:33PM 25.8364 -81.3347 166° South 161 185 7,000  Level Miami Center
02:34PM 25.7950 -81.3242 167° South 161 185 7,000  Level Miami Center
02:35PM 25.7514 -81.3133 167° South 161 185 7,000  Level Miami Center
02:36PM 25.7122 -81.3025 166° South 156 180 7,000  Level Miami Center
02:37PM 25.6706 -81.2942 170° South 156 180 7,000  Level Miami Center
02:38PM 25.6314 -81.2811 163° South 156 180 7,000  Level Miami Center
02:39PM 25.5897 -81.2728 170° South 156 180 7,000  Level Miami Center
02:40PM 25.5483 -81.2597 164° South 156 180 7,000 -60 Level Miami Center
02:41PM 25.5089 -81.2514 169° South 156 180 6,900 -300 Descending Miami Center
02:42PM 25.4633 -81.2406 168° South 156 180 6,400 -540 Descending Miami Center
02:43PM 25.4178 -81.2272 165° South 162 186 5,900 -540 Descending Miami Center
02:44PM 25.3681 -81.2164 169° South 174 200 5,400 -540 Descending Miami Center
02:45PM 25.3225 -81.2033 165° South 174 200 4,900 -540 Descending Miami Center
02:46PM 25.2747 -81.1900 166° South 179 206 4,400 -540 Descending Miami Center
02:47PM 25.2272 -81.1792 168° South 179 206 3,900 -540 Descending Miami Center
02:48PM 25.1794 -81.1661 166° South 179 206 3,400 -480 Descending Miami Center
02:49PM 25.1319 -81.1506 163° South 179 206 3,000 -240 Descending Miami Center
02:50PM 25.0842 -81.1419 171° South 179 206 3,000  Level Miami Center